Time;durP1;ratioP1;P1;durP2;ratioP2;P2;SDS_P1;SDS_P2;PMS_P1;PMS_P2;Temp;Humidity;BMP_temperature;BMP_pressure;BME280_temperature;BME280_humidity;BME280_pressure;Samples;Min_cycle;Max_cycle;Signal;HPM_P1;HPM_P2
2023/11/26 00:00:47;;;;;;;5.03;2.42;;;6.80;99.90;;;;;;5014934;28;20297;-75
2023/11/26 00:03:14;;;;;;;6.75;2.00;;;6.70;99.90;;;;;;5047474;28;20052;-75
2023/11/26 00:05:40;;;;;;;4.70;1.80;;;6.80;99.90;;;;;;5048438;28;20021;-76
2023/11/26 00:08:06;;;;;;;8.05;2.97;;;6.70;99.90;;;;;;5048774;28;20025;-76
2023/11/26 00:10:31;;;;;;;5.28;2.67;;;6.70;99.90;;;;;;5048268;28;20067;-76
2023/11/26 00:12:57;;;;;;;8.55;3.38;;;6.60;99.90;;;;;;5048282;28;20087;-76
2023/11/26 00:15:23;;;;;;;12.95;5.32;;;6.60;99.90;;;;;;5030822;28;20032;-76
2023/11/26 00:17:49;;;;;;;11.93;3.25;;;6.60;99.90;;;;;;5048538;28;20267;-76
2023/11/26 00:20:14;;;;;;;13.25;4.63;;;6.50;99.90;;;;;;5047987;28;20059;-76
2023/11/26 00:22:41;;;;;;;5.97;2.70;;;6.60;99.90;;;;;;5047322;28;20037;-76
2023/11/26 00:25:07;;;;;;;5.80;1.92;;;6.60;99.90;;;;;;5014283;28;20326;-76
2023/11/26 00:27:33;;;;;;;5.13;2.00;;;6.50;99.90;;;;;;5047135;28;20088;-76
2023/11/26 00:29:59;;;;;;;16.85;5.32;;;6.50;99.90;;;;;;5047374;28;20021;-76
2023/11/26 00:32:25;;;;;;;9.40;3.15;;;6.60;99.90;;;;;;5046851;28;20033;-76
2023/11/26 00:34:50;;;;;;;6.13;2.30;;;6.60;99.90;;;;;;5046777;28;20108;-76
2023/11/26 00:37:16;;;;;;;4.38;1.83;;;6.60;99.90;;;;;;5014120;28;20313;-76
2023/11/26 00:39:42;;;;;;;6.15;2.40;;;6.60;99.90;;;;;;5047990;28;20033;-76
2023/11/26 00:42:08;;;;;;;19.00;5.18;;;6.70;99.90;;;;;;5047959;28;20044;-76
2023/11/26 00:44:34;;;;;;;11.75;4.15;;;6.70;99.90;;;;;;5046709;28;20347;-76
2023/11/26 00:46:59;;;;;;;20.10;5.85;;;6.70;99.90;;;;;;5046760;28;20085;-76
2023/11/26 00:49:25;;;;;;;15.60;4.85;;;6.70;99.90;;;;;;5046465;28;20140;-76
2023/11/26 00:51:52;;;;;;;13.77;4.63;;;6.80;99.90;;;;;;5046914;28;20037;-76
2023/11/26 00:54:18;;;;;;;16.63;5.78;;;6.80;99.90;;;;;;5030315;28;20037;-76
2023/11/26 00:56:44;;;;;;;18.20;6.10;;;6.80;99.90;;;;;;5046742;28;20037;-76
2023/11/26 00:59:10;;;;;;;16.70;6.13;;;6.90;99.90;;;;;;5045640;28;20092;-76
2023/11/26 01:01:35;;;;;;;12.40;3.50;;;6.90;99.90;;;;;;5046653;28;20275;-76
2023/11/26 01:04:01;;;;;;;12.43;4.32;;;6.90;99.90;;;;;;5013743;28;20075;-76
2023/11/26 01:06:27;;;;;;;15.45;4.82;;;6.90;99.90;;;;;;5046416;28;20079;-76
2023/11/26 01:08:53;;;;;;;10.60;3.60;;;6.90;99.90;;;;;;5046513;28;20258;-76
2023/11/26 01:11:18;;;;;;;9.95;2.90;;;6.90;99.90;;;;;;5046591;28;20034;-76
2023/11/26 01:13:44;;;;;;;10.63;3.03;;;6.90;99.90;;;;;;5030063;28;20298;-76
2023/11/26 01:16:10;;;;;;;5.47;2.05;;;6.90;99.90;;;;;;5046440;28;20249;-76
2023/11/26 01:18:39;;;;;;;8.73;2.00;;;6.90;99.90;;;;;;5046320;28;20308;-76
2023/11/26 01:21:05;;;;;;;9.88;3.72;;;6.90;99.90;;;;;;5046253;28;20221;-76
2023/11/26 01:23:31;;;;;;;17.80;3.95;;;6.90;99.90;;;;;;5029762;28;20041;-76
2023/11/26 01:25:57;;;;;;;9.50;3.45;;;6.90;99.90;;;;;;5046896;28;20032;-76
2023/11/26 01:28:23;;;;;;;8.23;2.10;;;6.90;99.90;;;;;;5046115;28;20367;-76
2023/11/26 01:30:48;;;;;;;9.10;2.30;;;6.90;99.90;;;;;;5029529;28;20295;-76
2023/11/26 01:33:14;;;;;;;9.57;2.20;;;6.90;99.90;;;;;;5046094;28;20241;-76
2023/11/26 01:35:40;;;;;;;5.45;1.90;;;6.90;99.90;;;;;;5047088;28;20026;-76
2023/11/26 01:38:06;;;;;;;9.48;2.80;;;6.90;99.90;;;;;;5046170;28;20182;-76
2023/11/26 01:40:38;;;;;;;10.23;2.50;;;6.90;99.90;;;;;;5045919;28;20087;-76
2023/11/26 01:43:04;;;;;;;7.60;2.80;;;6.90;99.90;;;;;;5013216;28;20029;-76
2023/11/26 01:45:30;;;;;;;7.22;2.63;;;6.90;99.90;;;;;;5045760;28;20081;-76
2023/11/26 01:47:59;;;;;;;6.13;2.03;;;6.90;99.90;;;;;;5029396;28;20310;-76
2023/11/26 01:50:25;;;;;;;7.03;2.38;;;6.90;99.90;;;;;;5045496;28;20045;-76
2023/11/26 01:52:50;;;;;;;5.68;2.30;;;6.80;99.90;;;;;;5012968;28;20129;-76
2023/11/26 01:55:17;;;;;;;10.38;2.13;;;6.80;99.90;;;;;;5013332;28;20048;-76
2023/11/26 01:57:43;;;;;;;7.70;2.10;;;6.90;99.90;;;;;;5029207;28;20034;-76
2023/11/26 02:00:11;;;;;;;7.63;2.05;;;6.80;99.90;;;;;;5045649;28;20022;-76
2023/11/26 02:02:37;;;;;;;8.35;2.30;;;6.80;99.90;;;;;;5013231;28;20092;-76
2023/11/26 02:05:02;;;;;;;5.82;1.63;;;6.80;99.90;;;;;;5046698;28;20037;-76
2023/11/26 02:07:28;;;;;;;7.78;1.92;;;6.80;99.90;;;;;;5028917;28;20021;-76
2023/11/26 02:09:54;;;;;;;5.47;1.95;;;6.80;99.90;;;;;;5045391;28;20056;-76
2023/11/26 02:12:19;;;;;;;4.25;1.80;;;6.80;99.90;;;;;;5028971;28;20037;-76
2023/11/26 02:14:49;;;;;;;6.43;2.28;;;6.80;99.90;;;;;;5045180;28;20083;-76
2023/11/26 02:17:15;;;;;;;5.65;1.70;;;6.80;99.90;;;;;;5045257;28;20030;-77
2023/11/26 02:19:40;;;;;;;5.68;1.75;;;6.90;99.90;;;;;;5045267;28;20128;-77
2023/11/26 02:22:07;;;;;;;6.53;2.00;;;6.90;99.90;;;;;;5028826;28;20053;-77
2023/11/26 02:24:49;;;;;;;7.55;1.73;;;6.90;99.90;;;;;;5044999;28;20038;-77
2023/11/26 02:27:15;;;;;;;7.75;2.90;;;6.90;99.90;;;;;;5029222;28;20084;-77
2023/11/26 02:29:41;;;;;;;7.28;1.95;;;6.90;99.90;;;;;;5045024;28;20085;-77
2023/11/26 02:32:07;;;;;;;5.40;1.60;;;6.90;99.90;;;;;;5046001;28;20035;-76
2023/11/26 02:34:33;;;;;;;5.90;1.63;;;6.90;99.90;;;;;;5045811;28;20029;-77
2023/11/26 02:36:59;;;;;;;4.85;1.70;;;6.90;99.90;;;;;;5045732;28;20037;-77
2023/11/26 02:39:28;;;;;;;7.03;2.10;;;6.90;99.90;;;;;;5045763;28;20056;-77
2023/11/26 02:41:54;;;;;;;8.68;2.60;;;6.90;99.90;;;;;;5044895;28;20174;-77
2023/11/26 02:44:20;;;;;;;7.47;2.10;;;6.90;99.90;;;;;;5044780;28;20060;-77
2023/11/26 02:46:47;;;;;;;4.00;2.05;;;7.00;99.90;;;;;;5045337;28;20025;-77
2023/11/26 02:49:13;;;;;;;6.35;2.25;;;6.90;99.90;;;;;;5045365;28;20196;-77
2023/11/26 02:51:38;;;;;;;2.33;1.48;;;6.90;99.90;;;;;;5045708;28;20026;-77
2023/11/26 02:54:04;;;;;;;3.50;1.50;;;6.90;99.90;;;;;;5028273;28;20044;-77
2023/11/26 02:56:30;;;;;;;4.03;1.42;;;6.80;99.90;;;;;;5045382;28;20025;-77
2023/11/26 02:58:56;;;;;;;5.75;1.70;;;6.80;99.90;;;;;;5044484;28;20306;-77
2023/11/26 03:01:29;;;;;;;6.88;1.60;;;6.80;99.90;;;;;;5044416;28;20048;-77
2023/11/26 03:03:55;;;;;;;5.38;1.70;;;6.80;99.90;;;;;;5044480;28;20088;-77
2023/11/26 03:06:26;;;;;;;5.43;1.42;;;6.80;99.90;;;;;;5011478;28;20036;-77
2023/11/26 03:09:09;;;;;;;;;;;6.80;99.90;;;;;;5029037;28;20048;-77
2023/11/26 03:14:19;;;;;;;5.05;2.35;;;6.80;99.90;;;;;;5030699;28;20052;-77
2023/11/26 03:16:46;;;;;;;5.95;1.73;;;6.80;99.90;;;;;;5044166;28;20025;-77
2023/11/26 03:19:12;;;;;;;4.55;1.90;;;6.80;99.90;;;;;;5045211;28;20041;-77
2023/11/26 03:21:43;;;;;;;4.10;1.67;;;6.80;99.90;;;;;;5044788;28;20022;-77
2023/11/26 03:24:09;;;;;;;3.78;1.30;;;6.80;99.90;;;;;;5044839;28;20071;-77
2023/11/26 03:26:36;;;;;;;3.40;1.45;;;6.80;99.90;;;;;;5044135;28;20287;-77
2023/11/26 03:29:02;;;;;;;5.80;1.80;;;6.80;99.90;;;;;;5044152;28;20029;-77
2023/11/26 03:31:30;;;;;;;6.80;2.08;;;6.80;99.90;;;;;;5027916;28;20275;-77
2023/11/26 03:33:57;;;;;;;6.35;1.73;;;6.80;99.90;;;;;;5044158;28;20033;-77
2023/11/26 03:36:22;;;;;;;4.53;1.90;;;6.90;99.90;;;;;;5044839;28;20033;-77
2023/11/26 03:38:48;;;;;;;6.93;2.17;;;6.90;99.90;;;;;;5043918;28;20081;-77
2023/11/26 03:41:14;;;;;;;5.55;2.45;;;6.90;99.90;;;;;;5027498;28;20025;-77
2023/11/26 03:43:40;;;;;;;7.57;3.80;;;6.90;99.90;;;;;;5044059;28;20186;-77
2023/11/26 03:46:06;;;;;;;8.65;3.63;;;7.00;99.90;;;;;;5045109;28;20030;-76
2023/11/26 03:48:32;;;;;;;7.32;2.53;;;7.00;99.90;;;;;;5044021;28;20029;-76
2023/11/26 03:50:58;;;;;;;6.80;2.47;;;7.00;99.90;;;;;;5027532;28;20343;-77
2023/11/26 03:53:24;;;;;;;7.38;1.90;;;7.00;99.90;;;;;;5044005;28;20021;-77
2023/11/26 03:55:50;;;;;;;4.13;1.60;;;7.00;99.90;;;;;;5027519;28;20030;-77
2023/11/26 03:58:18;;;;;;;6.00;1.80;;;7.00;99.90;;;;;;5044556;28;20923;-77
2023/11/26 04:00:44;;;;;;;3.25;1.35;;;7.00;99.90;;;;;;5044805;28;20021;-77
2023/11/26 04:03:09;;;;;;;3.35;1.73;;;7.00;99.90;;;;;;5043775;28;20100;-77
2023/11/26 04:05:35;;;;;;;4.95;1.40;;;7.00;99.90;;;;;;5044792;28;20225;-77
2023/11/26 04:08:01;;;;;;;7.22;1.48;;;7.00;99.90;;;;;;5043955;28;20036;-77
2023/11/26 04:10:27;;;;;;;6.80;1.58;;;7.00;99.90;;;;;;5043804;28;20298;-77
2023/11/26 04:12:53;;;;;;;4.78;1.40;;;7.00;99.90;;;;;;5043748;28;20036;-77
2023/11/26 04:15:22;;;;;;;6.35;2.03;;;7.10;99.90;;;;;;5043622;28;20235;-77
2023/11/26 04:17:48;;;;;;;5.30;1.70;;;7.10;99.90;;;;;;5027923;28;20021;-77
2023/11/26 04:20:14;;;;;;;6.82;1.58;;;7.00;99.90;;;;;;5044859;28;20266;-77
2023/11/26 04:22:39;;;;;;;6.10;1.63;;;7.00;99.90;;;;;;5044574;28;20324;-77
2023/11/26 04:25:05;;;;;;;5.10;1.50;;;7.10;99.90;;;;;;5010781;28;20113;-77
2023/11/26 04:27:31;;;;;;;5.32;1.88;;;7.10;99.90;;;;;;5044645;28;20030;-77
2023/11/26 04:29:58;;;;;;;8.98;1.85;;;7.00;99.90;;;;;;5043722;28;20033;-77
2023/11/26 04:32:23;;;;;;;4.53;1.65;;;7.00;99.90;;;;;;5044363;28;20235;-77
2023/11/26 04:34:49;;;;;;;4.00;1.70;;;7.00;99.90;;;;;;5046267;28;20290;-77
2023/11/26 04:37:15;;;;;;;3.03;1.50;;;7.00;99.90;;;;;;5047393;28;20044;-77
2023/11/26 04:39:41;;;;;;;4.35;1.58;;;7.00;99.90;;;;;;5014270;28;20187;-77
2023/11/26 04:42:06;;;;;;;4.13;1.60;;;7.00;99.90;;;;;;5030678;28;20034;-76
2023/11/26 04:44:32;;;;;;;4.93;1.80;;;7.00;99.90;;;;;;5030462;28;20091;-76
2023/11/26 04:46:59;;;;;;;6.45;1.85;;;7.00;99.90;;;;;;5047030;28;20029;-76
2023/11/26 04:49:24;;;;;;;2.67;1.50;;;7.00;99.90;;;;;;5047525;28;20053;-76
2023/11/26 04:51:50;;;;;;;3.97;1.30;;;7.10;99.90;;;;;;5047042;28;20089;-76
2023/11/26 04:54:16;;;;;;;6.00;1.80;;;7.10;99.90;;;;;;5047942;28;20346;-76
2023/11/26 04:56:42;;;;;;;7.15;1.52;;;7.10;99.90;;;;;;5046787;28;20041;-76
2023/11/26 04:59:08;;;;;;;3.97;1.45;;;7.10;99.90;;;;;;5046694;28;20111;-76
2023/11/26 05:01:48;;;;;;;3.47;1.40;;;7.10;99.90;;;;;;5047748;28;20101;-76
2023/11/26 05:04:15;;;;;;;3.47;1.40;;;7.10;99.90;;;;;;5046883;28;20055;-76
2023/11/26 05:06:42;;;;;;;4.00;1.60;;;7.20;99.90;;;;;;5047267;28;20017;-76
2023/11/26 05:09:11;;;;;;;4.13;1.40;;;7.30;99.90;;;;;;5046535;28;20167;-77
2023/11/26 05:11:43;;;;;;;5.18;1.40;;;7.30;99.90;;;;;;5014554;28;20018;-76
2023/11/26 05:14:10;;;;;;;3.30;1.60;;;7.30;99.90;;;;;;5046527;28;20294;-76
2023/11/26 05:16:36;;;;;;;4.72;1.42;;;7.30;99.90;;;;;;5029979;28;20033;-76
2023/11/26 05:19:02;;;;;;;3.95;1.70;;;7.30;99.90;;;;;;5046427;28;20179;-76
2023/11/26 05:21:27;;;;;;;5.00;1.50;;;7.30;99.90;;;;;;5047293;28;20033;-76
2023/11/26 05:23:54;;;;;;;4.32;1.52;;;7.30;99.90;;;;;;5046269;28;20033;-76
2023/11/26 05:26:20;;;;;;;5.80;2.08;;;7.30;99.90;;;;;;5045992;28;20220;-76
2023/11/26 05:28:46;;;;;;;4.60;1.98;;;7.20;99.90;;;;;;5046135;28;20045;-76
2023/11/26 05:31:11;;;;;;;6.55;1.88;;;7.20;99.90;;;;;;5029694;28;20079;-76
2023/11/26 05:33:38;;;;;;;3.13;1.30;;;7.20;99.90;;;;;;5047141;28;20096;-76
2023/11/26 05:36:05;;;;;;;4.82;1.60;;;7.20;99.90;;;;;;5047105;28;20033;-76
2023/11/26 05:38:31;;;;;;;3.33;1.35;;;7.20;99.90;;;;;;5045793;28;20103;-76
2023/11/26 05:40:57;;;;;;;3.40;1.63;;;7.20;99.90;;;;;;5029543;28;20029;-76
2023/11/26 05:43:23;;;;;;;5.88;1.55;;;7.20;99.90;;;;;;5045917;28;20025;-76
2023/11/26 05:45:49;;;;;;;6.40;1.50;;;7.30;99.90;;;;;;5029101;28;20025;-76
2023/11/26 05:48:15;;;;;;;3.63;1.30;;;7.20;99.90;;;;;;5045791;28;20021;-76
2023/11/26 05:50:41;;;;;;;4.82;1.50;;;7.20;99.90;;;;;;5029270;28;20042;-76
2023/11/26 05:53:07;;;;;;;4.82;1.45;;;7.20;99.90;;;;;;5029302;28;20093;-76
2023/11/26 05:55:33;;;;;;;2.40;1.20;;;7.20;99.90;;;;;;5045597;28;20029;-76
2023/11/26 05:57:58;;;;;;;4.60;1.50;;;7.20;99.90;;;;;;5029235;28;20108;-76
2023/11/26 06:00:24;;;;;;;4.97;1.52;;;7.10;99.90;;;;;;5046389;28;20033;-76
2023/11/26 06:02:50;;;;;;;7.35;2.42;;;7.20;99.90;;;;;;5046106;28;20072;-76
2023/11/26 06:05:16;;;;;;;5.07;1.63;;;7.20;99.90;;;;;;5046158;28;20051;-76
2023/11/26 06:07:42;;;;;;;4.30;1.77;;;7.20;99.90;;;;;;5028908;28;20021;-76
2023/11/26 06:10:09;;;;;;;5.60;1.60;;;7.30;99.90;;;;;;5046859;28;20036;-76
2023/11/26 06:12:35;;;;;;;4.78;1.70;;;7.30;99.90;;;;;;5045231;28;20140;-76
2023/11/26 06:15:01;;;;;;;4.43;1.55;;;7.30;99.90;;;;;;5045395;28;20029;-76
2023/11/26 06:17:27;;;;;;;6.85;1.73;;;7.30;99.90;;;;;;5028750;28;20186;-76
2023/11/26 06:19:52;;;;;;;5.88;1.48;;;7.30;99.90;;;;;;5045405;28;20033;-76
2023/11/26 06:22:18;;;;;;;4.90;1.45;;;7.30;99.90;;;;;;5045312;28;20226;-76
2023/11/26 06:24:44;;;;;;;4.20;1.60;;;7.30;99.90;;;;;;5012298;28;20159;-76
2023/11/26 06:27:09;;;;;;;4.43;1.40;;;7.30;99.90;;;;;;5045075;28;20053;-76
2023/11/26 06:29:37;;;;;;;7.72;1.70;;;7.30;99.90;;;;;;5028524;28;20071;-77
2023/11/26 06:32:04;;;;;;;2.70;1.42;;;7.40;99.90;;;;;;5045653;28;20186;-76
2023/11/26 06:34:31;;;;;;;3.60;1.50;;;7.40;99.90;;;;;;5045759;28;20029;-76
2023/11/26 06:36:57;;;;;;;2.83;1.40;;;7.40;99.90;;;;;;5044854;28;20055;-76
2023/11/26 06:39:24;;;;;;;4.57;1.75;;;7.40;99.90;;;;;;5045898;28;20041;-76
2023/11/26 06:41:50;;;;;;;5.57;1.70;;;7.40;99.90;;;;;;5045896;28;20044;-76
2023/11/26 06:44:16;;;;;;;4.38;1.58;;;7.40;99.90;;;;;;5011893;28;20159;-76
2023/11/26 06:46:41;;;;;;;3.95;1.52;;;7.40;99.90;;;;;;5044598;28;20079;-76
2023/11/26 06:49:07;;;;;;;4.05;1.55;;;7.40;99.90;;;;;;5028114;28;20060;-76
2023/11/26 06:51:33;;;;;;;3.35;1.58;;;7.40;99.90;;;;;;5044689;28;20179;-76
2023/11/26 06:53:58;;;;;;;5.18;1.60;;;7.40;99.90;;;;;;5028166;28;20040;-76
2023/11/26 06:56:24;;;;;;;4.50;1.90;;;7.50;99.90;;;;;;5027232;28;20057;-76
2023/11/26 06:58:50;;;;;;;6.38;1.88;;;7.40;99.90;;;;;;5045015;28;20080;-76
2023/11/26 07:01:16;;;;;;;3.58;1.70;;;7.40;99.90;;;;;;5027923;28;20056;-76
2023/11/26 07:03:42;;;;;;;7.88;1.60;;;7.50;99.90;;;;;;5044472;28;20044;-76
2023/11/26 07:06:09;;;;;;;4.05;1.63;;;7.40;99.90;;;;;;5044990;28;20018;-76
2023/11/26 07:08:38;;;;;;;3.83;1.52;;;7.50;99.90;;;;;;5045156;28;20293;-76
2023/11/26 07:11:05;;;;;;;3.35;1.80;;;7.50;99.90;;;;;;5028197;28;20040;-76
2023/11/26 07:13:31;;;;;;;5.00;1.70;;;7.50;99.90;;;;;;5028040;28;20025;-76
2023/11/26 07:15:57;;;;;;;4.00;2.05;;;7.50;99.90;;;;;;5028015;28;20376;-76
2023/11/26 07:18:23;;;;;;;5.40;1.50;;;7.50;99.90;;;;;;5044308;28;20021;-76
2023/11/26 07:20:49;;;;;;;6.97;1.70;;;7.50;99.90;;;;;;5027758;28;20030;-76
2023/11/26 07:23:15;;;;;;;4.43;1.63;;;7.50;99.90;;;;;;5027545;28;20056;-76
2023/11/26 07:25:40;;;;;;;5.07;1.70;;;7.50;99.90;;;;;;5044096;28;20394;-76
2023/11/26 07:28:11;;;;;;;6.28;2.08;;;7.50;99.90;;;;;;5027705;28;20033;-76
2023/11/26 07:30:37;;;;;;;7.13;2.35;;;7.50;99.90;;;;;;5028376;28;20040;-76
2023/11/26 07:33:03;;;;;;;10.02;3.50;;;7.50;99.90;;;;;;5044174;28;20283;-76
2023/11/26 07:35:30;;;;;;;10.73;4.47;;;7.50;99.90;;;;;;5044983;28;20263;-76
2023/11/26 07:37:56;;;;;;;9.45;3.65;;;7.50;99.90;;;;;;5044065;28;20086;-76
2023/11/26 07:40:22;;;;;;;4.78;2.20;;;7.50;99.90;;;;;;5027536;28;20232;-76
2023/11/26 07:42:49;;;;;;;5.13;2.00;;;7.50;99.90;;;;;;5044855;28;20033;-76
2023/11/26 07:45:15;;;;;;;7.35;3.03;;;7.50;99.90;;;;;;5027814;28;20043;-76
2023/11/26 07:47:41;;;;;;;8.85;3.08;;;7.50;99.90;;;;;;5044014;28;20025;-76
2023/11/26 07:50:07;;;;;;;7.80;3.25;;;7.60;99.90;;;;;;5027283;28;20046;-76
2023/11/26 07:52:34;;;;;;;8.25;3.40;;;7.60;99.90;;;;;;5043467;28;20123;-76
2023/11/26 07:55:03;;;;;;;9.50;2.50;;;7.60;99.90;;;;;;5044056;28;20086;-76
2023/11/26 07:57:30;;;;;;;6.35;2.88;;;7.60;99.90;;;;;;5043788;28;20033;-75
2023/11/26 07:59:57;;;;;;;7.97;2.90;;;7.60;99.90;;;;;;5043919;28;20033;-76
2023/11/26 08:02:23;;;;;;;9.32;3.10;;;7.60;99.90;;;;;;5043784;28;20271;-76
2023/11/26 08:04:53;;;;;;;7.53;3.58;;;7.60;99.90;;;;;;5027328;28;20105;-76
2023/11/26 08:07:23;;;;;;;8.32;3.55;;;7.60;99.90;;;;;;5044435;28;20034;-76
2023/11/26 08:09:50;;;;;;;7.53;2.28;;;7.60;99.90;;;;;;5031543;28;20033;-76
2023/11/26 08:12:20;;;;;;;5.50;3.05;;;7.60;99.90;;;;;;5047689;28;20330;-76
2023/11/26 08:14:45;;;;;;;6.57;2.43;;;7.70;99.90;;;;;;5031566;28;20040;-76
2023/11/26 08:17:11;;;;;;;4.85;2.22;;;7.70;99.90;;;;;;5047468;28;20041;-76
2023/11/26 08:19:40;;;;;;;6.05;2.22;;;7.70;99.90;;;;;;5047472;28;20040;-76
2023/11/26 08:22:06;;;;;;;5.15;2.38;;;7.70;99.90;;;;;;5015312;28;20029;-76
2023/11/26 08:24:32;;;;;;;7.15;2.47;;;7.70;99.90;;;;;;5047235;28;20041;-76
2023/11/26 08:27:00;;;;;;;6.95;2.50;;;7.70;99.90;;;;;;5047340;28;20079;-76
2023/11/26 08:29:26;;;;;;;11.02;2.72;;;7.70;99.90;;;;;;5047543;28;20032;-76
2023/11/26 08:31:53;;;;;;;5.78;1.90;;;7.70;99.90;;;;;;5030694;28;20199;-76
2023/11/26 08:34:18;;;;;;;8.43;2.10;;;7.70;99.90;;;;;;5047237;28;20078;-76
2023/11/26 08:36:44;;;;;;;6.97;1.85;;;7.80;99.90;;;;;;5048017;28;20221;-76
2023/11/26 08:39:19;;;;;;;6.20;1.95;;;7.80;99.90;;;;;;5030593;28;20223;-76
2023/11/26 08:41:45;;;;;;;7.25;2.10;;;7.80;99.90;;;;;;5046986;28;20029;-76
2023/11/26 08:44:14;;;;;;;9.60;3.30;;;7.80;99.90;;;;;;5046934;28;20037;-76
2023/11/26 08:46:41;;;;;;;9.13;2.30;;;7.80;99.90;;;;;;5047799;28;20030;-76
2023/11/26 08:49:08;;;;;;;6.68;2.22;;;7.90;99.90;;;;;;5046626;28;20057;-76
2023/11/26 08:51:36;;;;;;;5.95;2.40;;;7.90;99.90;;;;;;5046675;28;20029;-76
2023/11/26 08:54:02;;;;;;;3.17;2.00;;;7.90;99.90;;;;;;5046949;28;20040;-76
2023/11/26 08:56:29;;;;;;;4.55;2.38;;;7.90;99.90;;;;;;5046870;28;20033;-77
2023/11/26 08:58:54;;;;;;;9.38;2.45;;;7.90;99.90;;;;;;5014052;28;20049;-76
2023/11/26 09:01:22;;;;;;;9.65;2.40;;;8.00;99.90;;;;;;5046692;28;20025;-77
2023/11/26 09:03:48;;;;;;;5.35;2.40;;;8.00;99.90;;;;;;5030352;28;20040;-76
2023/11/26 09:06:14;;;;;;;5.90;2.50;;;8.00;99.90;;;;;;5013661;28;20177;-76
2023/11/26 09:08:40;;;;;;;3.33;2.05;;;8.00;99.90;;;;;;5046627;28;20030;-76
2023/11/26 09:11:06;;;;;;;4.53;1.77;;;8.00;99.90;;;;;;5013734;28;20047;-76
2023/11/26 09:13:32;;;;;;;6.10;2.08;;;8.00;99.90;;;;;;5030173;28;20238;-76
2023/11/26 09:15:58;;;;;;;8.23;3.30;;;8.00;99.90;;;;;;5030024;28;20029;-76
2023/11/26 09:18:24;;;;;;;15.70;7.45;;;8.10;99.90;;;;;;5047256;28;20385;-76
2023/11/26 09:20:49;;;;;;;15.25;4.35;;;8.10;99.90;;;;;;5045608;28;20079;-76
2023/11/26 09:23:15;;;;;;;11.00;5.97;;;8.10;99.90;;;;;;5047307;28;20168;-76
2023/11/26 09:25:41;;;;;;;13.55;5.38;;;8.10;99.90;;;;;;5013371;28;20341;-76
2023/11/26 09:28:07;;;;;;;13.85;5.63;;;8.20;99.90;;;;;;5046368;28;20029;-76
2023/11/26 09:30:33;;;;;;;11.95;4.97;;;8.20;99.90;;;;;;5029748;28;20052;-76
2023/11/26 09:32:59;;;;;;;17.65;7.43;;;8.20;99.90;;;;;;5013324;28;20044;-76
2023/11/26 09:35:25;;;;;;;11.48;4.10;;;8.20;99.90;;;;;;5029693;28;20029;-76
2023/11/26 09:37:53;;;;;;;8.10;2.80;;;8.20;99.90;;;;;;5045808;28;20259;-76
2023/11/26 09:40:19;;;;;;;6.43;2.50;;;8.30;99.90;;;;;;5045968;28;20313;-76
2023/11/26 09:42:50;;;;;;;6.72;2.63;;;8.30;99.90;;;;;;5045941;28;20033;-76
2023/11/26 09:45:16;;;;;;;9.65;2.60;;;8.30;99.90;;;;;;5046733;28;20025;-76
2023/11/26 09:47:42;;;;;;;8.18;2.40;;;8.40;99.90;;;;;;5045822;28;20029;-76
2023/11/26 09:50:09;;;;;;;4.70;2.10;;;8.30;99.90;;;;;;5046541;28;20233;-76
2023/11/26 09:52:36;;;;;;;9.20;2.40;;;8.30;99.90;;;;;;5029452;28;20017;-76
2023/11/26 09:55:03;;;;;;;11.82;2.80;;;8.40;99.90;;;;;;5029250;28;20021;-76
2023/11/26 09:57:29;;;;;;;15.15;3.35;;;8.40;99.90;;;;;;5029813;28;20041;-76
2023/11/26 09:59:54;;;;;;;11.30;3.10;;;8.40;99.90;;;;;;5045514;28;20025;-76
2023/11/26 10:02:20;;;;;;;8.90;2.70;;;8.50;99.90;;;;;;5029200;28;20032;-76
2023/11/26 10:04:47;;;;;;;9.48;3.15;;;8.50;99.90;;;;;;5045500;28;20287;-75
2023/11/26 10:07:14;;;;;;;10.38;3.83;;;8.50;99.90;;;;;;5045463;28;20148;-78
2023/11/26 10:09:39;;;;;;;5.22;2.95;;;8.60;99.90;;;;;;5045296;28;20021;-77
2023/11/26 10:12:06;;;;;;;7.53;3.33;;;8.60;99.90;;;;;;5045224;28;20189;-77
2023/11/26 10:14:31;;;;;;;4.22;2.50;;;8.60;99.90;;;;;;5045308;28;20286;-76
2023/11/26 10:17:09;;;;;;;8.40;2.72;;;8.60;99.90;;;;;;5045843;28;20045;-76
2023/11/26 10:19:34;;;;;;;6.70;3.00;;;8.70;99.90;;;;;;5029256;28;20198;-77
2023/11/26 10:22:00;;;;;;;5.70;2.85;;;8.70;99.90;;;;;;5046610;28;20029;-77
2023/11/26 10:24:29;;;;;;;6.28;2.53;;;8.70;99.90;;;;;;5029087;28;20059;-77
2023/11/26 10:26:57;;;;;;;6.55;2.83;;;8.70;99.90;;;;;;5028627;28;20028;-77
2023/11/26 10:29:28;;;;;;;5.57;2.83;;;8.70;99.90;;;;;;5044931;28;20029;-76
2023/11/26 10:32:03;;;;;;;5.45;2.50;;;8.80;99.90;;;;;;5044731;28;20040;-77
2023/11/26 10:34:30;;;;;;;5.88;2.05;;;8.70;99.90;;;;;;5044871;28;20059;-77
2023/11/26 10:36:56;;;;;;;7.38;2.42;;;8.70;99.90;;;;;;5045729;28;20029;-77
2023/11/26 10:39:22;;;;;;;6.45;2.60;;;8.70;99.90;;;;;;5045790;28;20056;-77
2023/11/26 10:41:49;;;;;;;5.47;2.70;;;8.70;99.90;;;;;;5045964;28;20056;-76
2023/11/26 10:44:14;;;;;;;4.10;2.33;;;8.70;99.90;;;;;;5044798;28;20047;-76
2023/11/26 10:46:41;;;;;;;4.55;2.40;;;8.70;99.90;;;;;;5044597;28;20219;-76
2023/11/26 10:49:18;;;;;;;4.43;1.80;;;8.70;99.90;;;;;;5028108;28;20306;-76
2023/11/26 10:51:54;;;;;;;8.63;2.58;;;8.70;99.90;;;;;;5044559;28;20298;-77
2023/11/26 10:54:32;;;;;;;5.45;2.65;;;8.80;99.90;;;;;;5028283;28;20120;-76
2023/11/26 10:57:06;;;;;;;7.45;2.42;;;8.70;99.90;;;;;;5044501;28;20025;-77
2023/11/26 10:59:32;;;;;;;5.13;2.28;;;8.80;99.90;;;;;;5028857;28;20034;-76
2023/11/26 11:02:01;;;;;;;6.40;2.83;;;8.80;99.90;;;;;;5044410;28;20092;-76
2023/11/26 11:04:27;;;;;;;6.10;2.45;;;8.70;99.90;;;;;;5028223;28;20053;-76
2023/11/26 11:06:53;;;;;;;8.10;3.28;;;8.80;99.90;;;;;;5045276;28;20029;-76
2023/11/26 11:09:27;;;;;;;6.78;2.83;;;8.80;99.90;;;;;;5045478;28;20089;-77
2023/11/26 11:12:03;;;;;;;4.43;2.35;;;8.80;99.90;;;;;;5028506;28;20092;-76
2023/11/26 11:14:29;;;;;;;7.72;2.55;;;8.80;99.90;;;;;;5044010;28;20321;-77
2023/11/26 11:16:55;;;;;;;7.55;3.97;;;8.80;99.90;;;;;;5044323;28;20079;-76
2023/11/26 11:19:49;;;;;;;6.45;2.83;;;8.80;99.90;;;;;;5043929;28;20026;-76
2023/11/26 11:22:15;;;;;;;6.10;2.63;;;8.80;99.90;;;;;;5044181;28;20084;-76
2023/11/26 11:24:41;;;;;;;8.57;3.40;;;8.80;99.90;;;;;;5043994;28;20038;-76
2023/11/26 11:27:07;;;;;;;10.90;3.03;;;8.80;99.90;;;;;;5044109;28;20028;-76
2023/11/26 11:29:33;;;;;;;7.65;3.08;;;8.90;99.90;;;;;;5044105;28;20021;-76
2023/11/26 11:32:00;;;;;;;156.98;67.40;;;8.90;99.90;;;;;;5043921;28;20029;-76
2023/11/26 11:34:26;;;;;;;15.23;7.13;;;8.90;99.90;;;;;;5044843;28;20029;-77
2023/11/26 11:36:53;;;;;;;144.52;64.68;;;8.90;99.90;;;;;;5044061;28;20037;-77
2023/11/26 11:39:21;;;;;;;10.15;5.70;;;8.90;99.90;;;;;;5044139;28;20044;-77
2023/11/26 11:41:59;;;;;;;14.90;6.97;;;8.90;99.90;;;;;;5043867;28;20104;-77
2023/11/26 11:44:28;;;;;;;11.23;6.47;;;9.00;99.90;;;;;;5047482;28;20287;-77
2023/11/26 11:46:55;;;;;;;9.57;3.72;;;9.00;99.90;;;;;;5047970;28;20053;-77
2023/11/26 11:49:21;;;;;;;8.13;4.25;;;9.00;99.90;;;;;;5031012;28;20257;-76
2023/11/26 11:51:46;;;;;;;103.35;36.30;;;9.10;99.90;;;;;;5048048;28;20030;-77
2023/11/26 11:54:16;;;;;;;31.38;17.30;;;9.10;99.90;;;;;;5047994;28;20100;-76
2023/11/26 11:56:43;;;;;;;9.38;4.00;;;9.10;99.90;;;;;;5047887;28;20286;-77
2023/11/26 11:59:09;;;;;;;6.60;3.50;;;9.10;99.90;;;;;;5031433;28;20117;-77
2023/11/26 12:01:35;;;;;;;7.28;3.33;;;9.00;99.90;;;;;;5031252;28;20033;-77
2023/11/26 12:04:01;;;;;;;7.60;3.22;;;9.00;99.90;;;;;;5031213;28;20040;-76
2023/11/26 12:06:28;;;;;;;7.45;3.03;;;9.00;99.90;;;;;;5031127;28;20029;-76
2023/11/26 12:08:57;;;;;;;6.95;3.08;;;9.00;99.90;;;;;;5014653;28;20341;-77
2023/11/26 12:11:23;;;;;;;4.53;2.63;;;9.00;99.90;;;;;;5031256;28;20025;-76
2023/11/26 12:13:49;;;;;;;6.47;2.65;;;9.10;99.90;;;;;;5031190;28;20034;-76
2023/11/26 12:16:14;;;;;;;7.40;2.97;;;9.10;99.90;;;;;;5047467;28;20135;-76
2023/11/26 12:18:40;;;;;;;8.32;3.08;;;9.10;99.90;;;;;;5047421;28;20093;-75
2023/11/26 12:21:06;;;;;;;7.60;3.30;;;9.10;99.90;;;;;;5014356;28;20144;-76
2023/11/26 12:23:37;;;;;;;5.82;2.80;;;9.10;99.90;;;;;;5048375;28;20025;-76
2023/11/26 12:26:03;;;;;;;;;;;9.10;99.90;;;;;;5031316;28;20077;-78
2023/11/26 12:28:31;;;;;;;7.35;2.88;;;9.10;99.90;;;;;;5030592;28;19976;-76
2023/11/26 12:30:59;;;;;;;9.43;3.25;;;9.10;99.90;;;;;;5048020;28;20028;-76
2023/11/26 12:33:24;;;;;;;7.53;3.05;;;9.10;99.90;;;;;;5046124;28;20234;-76
2023/11/26 12:35:51;;;;;;;5.05;3.10;;;9.20;99.90;;;;;;5047106;28;20033;-77
2023/11/26 12:38:17;;;;;;;6.03;2.97;;;9.20;99.90;;;;;;5046971;28;20107;-76
2023/11/26 12:40:43;;;;;;;7.55;2.80;;;9.20;99.90;;;;;;5030528;28;20080;-76
2023/11/26 12:43:08;;;;;;;7.07;2.63;;;9.20;99.90;;;;;;5014024;28;20087;-76
2023/11/26 12:45:34;;;;;;;7.40;3.20;;;9.30;99.90;;;;;;5030289;28;20029;-76
2023/11/26 12:48:00;;;;;;;5.97;3.15;;;9.30;99.90;;;;;;5047971;28;20028;-76
2023/11/26 12:50:38;;;;;;;6.32;3.47;;;9.30;99.90;;;;;;5046297;28;20045;-76
2023/11/26 12:53:09;;;;;;;6.70;3.25;;;9.30;99.90;;;;;;5031815;28;20282;-75
2023/11/26 12:55:35;;;;;;;7.93;2.95;;;9.40;99.90;;;;;;5045599;28;20091;-76